createdAt,value
2023-05-11T00:00:04.970Z,3.80
2023-05-11T00:02:14.204Z,4.10
2023-05-11T00:04:24.344Z,4.30
2023-05-11T00:06:33.314Z,4.00
2023-05-11T00:08:41.798Z,3.70
2023-05-11T00:10:50.406Z,4.33
2023-05-11T00:12:59.695Z,3.67
2023-05-11T00:15:09.254Z,3.87
2023-05-11T00:17:18.925Z,3.97
2023-05-11T00:19:31.504Z,4.17
2023-05-11T00:21:40.438Z,4.13
2023-05-11T00:23:49.189Z,4.20
2023-05-11T00:25:58.365Z,4.50
2023-05-11T00:28:07.924Z,4.07
2023-05-11T00:30:17.923Z,4.07
2023-05-11T00:32:26.940Z,3.90
2023-05-11T00:34:37.032Z,4.20
2023-05-11T00:36:46.358Z,4.27
2023-05-11T00:38:55.088Z,4.20
2023-05-11T00:41:03.935Z,4.33
2023-05-11T00:43:12.872Z,4.03
2023-05-11T00:45:21.761Z,4.20
2023-05-11T00:47:31.138Z,4.60
2023-05-11T00:49:42.187Z,4.17
2023-05-11T00:51:51.904Z,4.50
2023-05-11T00:54:01.158Z,4.00
2023-05-11T00:56:10.534Z,4.70
2023-05-11T00:58:19.227Z,4.10
2023-05-11T01:00:27.952Z,4.10
2023-05-11T01:02:37.002Z,3.83
2023-05-11T01:04:47.171Z,4.30
2023-05-11T01:07:00.248Z,4.53
2023-05-11T01:09:13.033Z,4.63
2023-05-11T01:11:27.448Z,4.40
2023-05-11T01:13:37.311Z,4.63
2023-05-11T01:15:48.580Z,4.70
2023-05-11T01:18:00.418Z,4.40
2023-05-11T01:20:13.956Z,4.57
2023-05-11T01:22:29.480Z,4.73
2023-05-11T01:24:44.175Z,4.27
2023-05-11T01:27:05.784Z,4.33
2023-05-11T01:29:32.005Z,4.43
2023-05-11T01:31:44.312Z,4.10
2023-05-11T01:33:56.194Z,4.60
2023-05-11T01:36:06.071Z,4.57
2023-05-11T01:38:16.571Z,4.30
2023-05-11T01:40:26.269Z,4.50
2023-05-11T01:42:37.222Z,4.20
2023-05-11T01:44:46.334Z,4.27
2023-05-11T01:46:57.753Z,3.97
2023-05-11T01:49:08.872Z,3.80
2023-05-11T01:51:18.709Z,3.97
2023-05-11T01:53:28.486Z,4.07
2023-05-11T01:55:38.143Z,3.83
2023-05-11T01:57:47.348Z,4.97
2023-05-11T01:59:56.655Z,3.77
2023-05-11T02:02:08.484Z,4.17
2023-05-11T02:04:17.905Z,4.17
2023-05-11T02:06:27.432Z,4.43
2023-05-11T02:08:36.807Z,4.50
2023-05-11T02:10:46.238Z,4.10
2023-05-11T02:12:55.417Z,4.57
2023-05-11T02:15:05.703Z,4.03
2023-05-11T02:17:17.512Z,4.27
2023-05-11T02:19:27.014Z,3.90
2023-05-11T02:21:36.931Z,3.93
2023-05-11T02:23:46.663Z,4.10
2023-05-11T02:25:56.132Z,4.10
2023-05-11T02:28:06.063Z,4.57
2023-05-11T02:30:15.100Z,4.20
2023-05-11T02:32:28.546Z,4.23
2023-05-11T02:34:40.228Z,4.00
2023-05-11T02:36:50.731Z,4.40
2023-05-11T02:39:04.959Z,4.07
2023-05-11T02:41:17.559Z,4.03
2023-05-11T02:43:27.497Z,3.83
2023-05-11T02:45:37.894Z,4.07
2023-05-11T02:47:50.138Z,4.33
2023-05-11T02:50:00.610Z,3.90
2023-05-11T02:52:10.237Z,3.83
2023-05-11T02:54:19.700Z,3.87
2023-05-11T02:56:29.195Z,3.97
2023-05-11T02:58:38.217Z,3.90
2023-05-11T03:00:47.977Z,4.70
2023-05-11T03:02:59.428Z,4.07
2023-05-11T03:05:08.417Z,4.37
2023-05-11T03:07:16.972Z,4.43
2023-05-11T03:09:26.071Z,4.50
2023-05-11T03:11:35.330Z,4.70
2023-05-11T03:13:44.825Z,4.07
2023-05-11T03:15:54.144Z,4.47
2023-05-11T03:18:05.551Z,4.20
2023-05-11T03:20:14.507Z,4.87
2023-05-11T03:22:25.197Z,4.63
2023-05-11T03:24:34.008Z,4.30
2023-05-11T03:26:44.043Z,4.00
2023-05-11T03:28:54.564Z,5.00
2023-05-11T03:31:03.703Z,3.97
2023-05-11T03:33:14.245Z,4.23
2023-05-11T03:35:23.964Z,4.30
2023-05-11T03:37:33.322Z,4.47
2023-05-11T03:39:44.060Z,4.23
2023-05-11T03:41:54.583Z,4.70
2023-05-11T03:44:05.108Z,4.60
2023-05-11T03:46:14.391Z,5.00
2023-05-11T03:48:25.676Z,5.17
2023-05-11T03:50:35.208Z,4.37
2023-05-11T03:52:43.890Z,4.43
2023-05-11T03:54:52.801Z,4.63
2023-05-11T03:57:01.401Z,4.60
2023-05-11T03:59:10.536Z,5.10
2023-05-11T04:01:19.383Z,4.97
2023-05-11T04:03:29.891Z,5.17
2023-05-11T04:05:39.029Z,4.70
2023-05-11T04:07:47.781Z,4.40
2023-05-11T04:09:56.984Z,4.43
2023-05-11T04:12:06.370Z,5.10
2023-05-11T04:14:15.114Z,4.47
2023-05-11T04:16:24.360Z,4.37
2023-05-11T04:18:34.527Z,5.30
2023-05-11T04:20:43.778Z,4.90
2023-05-11T04:22:53.129Z,4.13
2023-05-11T04:25:02.068Z,5.13
2023-05-11T04:27:11.163Z,4.63
2023-05-11T04:29:20.245Z,5.20
2023-05-11T04:31:30.578Z,4.53
2023-05-11T04:33:41.099Z,4.70
2023-05-11T04:35:52.299Z,4.80
2023-05-11T04:38:01.420Z,4.77
2023-05-11T04:40:10.886Z,5.03
2023-05-11T04:42:20.279Z,5.33
2023-05-11T04:44:28.826Z,5.00
2023-05-11T04:46:38.634Z,4.40
2023-05-11T04:48:48.625Z,4.67
2023-05-11T04:50:57.863Z,4.73
2023-05-11T04:53:06.491Z,4.00
2023-05-11T04:55:15.034Z,4.37
2023-05-11T04:57:23.617Z,4.00
2023-05-11T04:59:33.759Z,3.77
2023-05-11T05:01:42.551Z,4.07
2023-05-11T05:03:53.661Z,3.50
2023-05-11T05:06:02.670Z,3.60
2023-05-11T05:08:11.751Z,3.23
2023-05-11T05:10:20.975Z,3.10
2023-05-11T05:12:29.602Z,3.27
2023-05-11T05:14:38.196Z,3.20
2023-05-11T05:16:47.064Z,3.80
2023-05-11T05:18:57.141Z,3.10
2023-05-11T05:21:06.224Z,2.97
2023-05-11T05:23:14.908Z,3.00
2023-05-11T05:25:24.239Z,2.87
2023-05-11T05:27:34.944Z,3.10
2023-05-11T05:29:43.965Z,3.20
2023-05-11T05:31:53.012Z,3.20
2023-05-11T05:34:03.151Z,2.90
2023-05-11T05:36:11.862Z,3.20
2023-05-11T05:38:20.910Z,3.10
2023-05-11T05:40:29.909Z,3.20
2023-05-11T05:42:38.956Z,2.80
2023-05-11T05:44:47.638Z,3.20
2023-05-11T05:46:56.685Z,2.90
2023-05-11T05:49:07.785Z,3.17
2023-05-11T05:51:16.706Z,3.30
2023-05-11T05:53:25.798Z,3.33
2023-05-11T05:55:34.639Z,2.53
2023-05-11T05:57:43.631Z,3.10
2023-05-11T05:59:52.943Z,2.80
2023-05-11T06:02:01.673Z,3.03
2023-05-11T06:04:11.730Z,2.90
2023-05-11T06:06:20.841Z,3.10
2023-05-11T06:08:29.597Z,2.83
2023-05-11T06:10:38.742Z,3.00
2023-05-11T06:12:47.338Z,2.87
2023-05-11T06:14:56.183Z,2.70
2023-05-11T06:17:04.831Z,2.97
2023-05-11T06:19:15.567Z,2.63
2023-05-11T06:21:24.738Z,2.90
2023-05-11T06:23:33.573Z,3.00
2023-05-11T06:25:42.497Z,3.13
2023-05-11T06:27:51.497Z,3.07
2023-05-11T06:30:00.285Z,3.07
2023-05-11T06:32:09.007Z,2.87
2023-05-11T06:34:19.292Z,3.53
2023-05-11T06:36:27.888Z,2.80
2023-05-11T06:38:36.575Z,2.93
2023-05-11T06:40:45.698Z,2.90
2023-05-11T06:42:54.788Z,2.83
2023-05-11T06:45:03.545Z,2.90
2023-05-11T06:47:12.540Z,2.73
2023-05-11T06:49:22.412Z,2.90
2023-05-11T06:51:32.235Z,2.60
2023-05-11T06:53:41.377Z,2.60
2023-05-11T06:55:50.922Z,2.90
2023-05-11T06:57:59.395Z,2.83
2023-05-11T07:00:08.984Z,3.00
2023-05-11T07:02:17.547Z,3.43
2023-05-11T07:04:30.161Z,3.23
2023-05-11T07:06:38.888Z,3.00
2023-05-11T07:08:47.645Z,2.73
2023-05-11T07:10:56.211Z,3.03
2023-05-11T07:13:05.434Z,3.17
2023-05-11T07:15:14.251Z,2.40
2023-05-11T07:17:23.502Z,2.80
2023-05-11T07:19:34.174Z,3.10
2023-05-11T07:21:43.129Z,2.90
2023-05-11T07:23:52.205Z,2.90
2023-05-11T07:26:01.890Z,3.30
2023-05-11T07:28:11.348Z,3.13
2023-05-11T07:30:21.105Z,3.10
2023-05-11T07:32:30.438Z,3.00
2023-05-11T07:34:41.368Z,3.47
2023-05-11T07:36:50.575Z,3.07
2023-05-11T07:39:01.334Z,2.93
2023-05-11T07:41:12.291Z,2.77
2023-05-11T07:43:21.560Z,3.07
2023-05-11T07:45:30.623Z,2.77
2023-05-11T07:47:39.653Z,2.90
2023-05-11T07:49:50.405Z,2.97
2023-05-11T07:51:59.573Z,2.97
2023-05-11T07:54:08.994Z,3.00
2023-05-11T07:56:17.681Z,3.00
2023-05-11T07:58:26.726Z,2.90
2023-05-11T08:00:36.082Z,2.90
2023-05-11T08:02:44.790Z,2.77
2023-05-11T08:04:54.804Z,2.90
2023-05-11T08:07:03.667Z,3.30
2023-05-11T08:09:12.568Z,2.90
2023-05-11T08:11:21.969Z,3.60
2023-05-11T08:13:31.147Z,3.00
2023-05-11T08:15:39.947Z,2.73
2023-05-11T08:17:49.262Z,3.30
2023-05-11T08:19:59.338Z,2.80
2023-05-11T08:22:08.365Z,2.73
2023-05-11T08:24:17.486Z,2.97
2023-05-11T08:26:26.047Z,2.53
2023-05-11T08:28:35.148Z,2.80
2023-05-11T08:30:44.200Z,2.90
2023-05-11T08:32:58.729Z,3.10
2023-05-11T08:35:10.290Z,3.03
2023-05-11T08:37:19.353Z,2.60
2023-05-11T08:39:43.727Z,2.60
2023-05-11T08:41:55.529Z,3.00
2023-05-11T08:44:04.688Z,2.87
2023-05-11T08:46:14.044Z,3.23
2023-05-11T08:48:23.522Z,3.07
2023-05-11T08:50:34.271Z,3.07
2023-05-11T08:52:42.902Z,2.70
2023-05-11T08:54:51.602Z,3.30
2023-05-11T08:57:01.552Z,3.10
2023-05-11T08:59:10.682Z,2.60
2023-05-11T09:01:21.650Z,3.10
2023-05-11T09:03:31.704Z,3.30
2023-05-11T09:05:41.890Z,3.03
2023-05-11T09:07:53.043Z,3.00
2023-05-11T09:10:02.100Z,2.90
2023-05-11T09:12:11.368Z,2.80
2023-05-11T09:16:37.547Z,3.20
2023-05-11T09:18:49.716Z,3.03
2023-05-11T09:21:02.561Z,2.70
2023-05-11T09:23:11.598Z,3.03
2023-05-11T09:25:21.177Z,3.30
2023-05-11T09:27:30.241Z,3.73
2023-05-11T09:29:38.987Z,3.10
2023-05-11T09:31:48.957Z,3.93
2023-05-11T09:34:10.208Z,4.03
2023-05-11T09:36:26.734Z,3.40
2023-05-11T09:38:35.715Z,4.10
2023-05-11T09:40:51.931Z,3.90
2023-05-11T09:43:01.210Z,3.63
2023-05-11T09:45:11.007Z,3.47
2023-05-11T09:47:22.508Z,3.47
2023-05-11T09:49:33.259Z,3.87
2023-05-11T09:51:43.684Z,3.63
2023-05-11T09:53:52.226Z,3.70
2023-05-11T09:56:01.738Z,3.00
2023-05-11T09:58:11.694Z,3.30
2023-05-11T10:00:21.179Z,3.30
2023-05-11T10:02:30.781Z,3.00
2023-05-11T10:04:39.481Z,3.37
2023-05-11T10:06:51.489Z,3.17
2023-05-11T10:09:10.411Z,3.10
2023-05-11T10:11:19.504Z,3.10
2023-05-11T10:13:28.661Z,3.40
2023-05-11T10:15:38.298Z,3.20
2023-05-11T10:17:47.621Z,3.20
2023-05-11T10:19:57.289Z,3.03
2023-05-11T10:22:08.076Z,3.30
2023-05-11T10:24:20.288Z,3.30
2023-05-11T10:26:29.543Z,3.10
2023-05-11T10:28:38.847Z,3.20
2023-05-11T10:30:48.387Z,3.20
2023-05-11T10:32:57.645Z,3.40
2023-05-11T10:35:07.333Z,3.57
2023-05-11T10:37:18.278Z,3.40
2023-05-11T10:39:27.498Z,3.30
2023-05-11T10:41:44.151Z,3.00
2023-05-11T10:44:03.256Z,3.20
2023-05-11T10:46:18.120Z,3.07
2023-05-11T10:48:44.483Z,2.90
2023-05-11T10:50:59.372Z,2.87
2023-05-11T10:53:19.073Z,3.10
2023-05-11T10:55:33.478Z,3.10
2023-05-11T10:57:50.996Z,3.00
2023-05-11T11:00:11.342Z,3.10
2023-05-11T11:02:20.587Z,2.87
2023-05-11T11:04:43.534Z,2.80
2023-05-11T11:07:06.061Z,2.70
2023-05-11T11:09:17.849Z,3.10
2023-05-11T11:11:33.341Z,2.80
2023-05-11T11:13:56.715Z,2.97
2023-05-11T11:16:16.160Z,2.97
2023-05-11T11:18:26.047Z,2.60
2023-05-11T11:20:51.044Z,2.90
2023-05-11T11:23:00.981Z,2.67
2023-05-11T11:25:12.123Z,3.10
2023-05-11T11:27:21.540Z,2.80
2023-05-11T11:29:30.987Z,2.60
2023-05-11T11:31:40.366Z,2.60
2023-05-11T11:33:49.137Z,3.00
2023-05-11T11:35:57.878Z,3.00
2023-05-11T11:38:06.816Z,2.97
2023-05-11T11:40:18.151Z,2.80
2023-05-11T11:42:38.052Z,3.00
2023-05-11T11:44:47.430Z,2.80
2023-05-11T11:47:11.397Z,2.60
2023-05-11T11:49:29.006Z,3.20
2023-05-11T11:51:40.732Z,2.60
2023-05-11T11:54:08.955Z,2.50
2023-05-11T11:56:36.015Z,2.80
2023-05-11T11:59:03.976Z,2.73
2023-05-11T12:01:14.706Z,2.77
2023-05-11T12:03:24.982Z,3.20
2023-05-11T12:05:35.527Z,2.80
2023-05-11T12:07:46.047Z,2.70
2023-05-11T12:09:55.346Z,3.33
2023-05-11T12:12:04.030Z,3.00
2023-05-11T12:14:14.489Z,2.60
2023-05-11T12:16:23.688Z,3.10
2023-05-11T12:18:32.447Z,2.70
2023-05-11T12:20:41.094Z,2.77
2023-05-11T12:22:50.618Z,3.40
2023-05-11T12:25:00.523Z,2.60
2023-05-11T12:27:09.620Z,2.83
2023-05-11T12:29:19.780Z,2.90
2023-05-11T12:31:28.800Z,2.90
2023-05-11T12:33:46.655Z,3.13
2023-05-11T12:35:55.778Z,2.47
2023-05-11T12:38:04.834Z,2.73
2023-05-11T12:40:14.098Z,3.00
2023-05-11T12:42:23.106Z,3.00
2023-05-11T12:44:34.201Z,2.73
2023-05-11T12:46:43.178Z,2.90
2023-05-11T12:48:53.576Z,2.90
2023-05-11T12:51:02.700Z,2.60
2023-05-11T12:53:15.844Z,3.10
2023-05-11T12:55:31.253Z,2.93
2023-05-11T12:57:40.609Z,3.20
2023-05-11T12:59:51.736Z,2.80
2023-05-11T13:02:07.226Z,3.23
2023-05-11T13:04:17.088Z,3.00
2023-05-11T13:06:26.811Z,2.90
2023-05-11T13:08:36.444Z,2.93
2023-05-11T13:10:46.774Z,2.90
2023-05-11T13:12:56.305Z,2.80
2023-05-11T13:15:12.967Z,2.90
2023-05-11T13:17:36.725Z,3.00
2023-05-11T13:19:46.068Z,2.53
2023-05-11T13:21:54.810Z,2.70
2023-05-11T13:24:04.372Z,3.20
2023-05-11T13:26:14.153Z,2.70
2023-05-11T13:28:24.442Z,3.10
2023-05-11T13:30:35.439Z,2.83
2023-05-11T13:32:44.353Z,2.80
2023-05-11T13:34:53.666Z,2.73
2023-05-11T13:37:02.288Z,2.77
2023-05-11T13:39:11.148Z,2.70
2023-05-11T13:41:20.051Z,2.97
2023-05-11T13:43:28.986Z,3.13
2023-05-11T13:45:41.356Z,3.00
2023-05-11T13:47:50.281Z,2.67
2023-05-11T13:50:00.062Z,2.60
2023-05-11T13:52:09.093Z,2.90
2023-05-11T13:54:17.916Z,2.90
2023-05-11T13:56:26.723Z,2.93
2023-05-11T13:58:36.132Z,3.10
2023-05-11T14:00:56.435Z,3.07
2023-05-11T14:03:13.268Z,3.27
2023-05-11T14:05:22.127Z,2.90
2023-05-11T14:07:45.674Z,2.80
2023-05-11T14:09:57.228Z,2.70
2023-05-11T14:12:06.304Z,2.80
2023-05-11T14:14:14.948Z,3.53
2023-05-11T14:16:25.475Z,3.30
2023-05-11T14:18:34.465Z,3.00
2023-05-11T14:20:43.639Z,2.87
2023-05-11T14:22:52.506Z,3.03
2023-05-11T14:25:01.911Z,2.90
2023-05-11T14:27:10.959Z,2.93
2023-05-11T14:29:19.631Z,2.70
2023-05-11T14:31:30.577Z,2.73
2023-05-11T14:33:39.341Z,2.70
2023-05-11T14:35:50.378Z,2.73
2023-05-11T14:37:59.204Z,2.60
2023-05-11T14:40:08.565Z,3.00
2023-05-11T14:42:17.332Z,2.60
2023-05-11T14:44:26.518Z,2.97
2023-05-11T14:46:37.442Z,2.77
2023-05-11T14:48:46.506Z,3.00
2023-05-11T14:50:55.371Z,2.90
2023-05-11T14:53:04.108Z,3.37
2023-05-11T14:55:12.725Z,2.93
2023-05-11T14:57:21.316Z,2.87
2023-05-11T14:59:30.103Z,3.43
2023-05-11T15:01:40.061Z,3.20
2023-05-11T15:03:48.670Z,2.90
2023-05-11T15:05:57.555Z,3.47
2023-05-11T15:08:15.233Z,3.20
2023-05-11T15:10:30.983Z,3.40
2023-05-11T15:12:39.852Z,2.90
2023-05-11T15:14:48.822Z,2.90
2023-05-11T15:17:00.457Z,3.10
2023-05-11T15:19:09.060Z,3.27
2023-05-11T15:21:18.027Z,3.20
2023-05-11T15:23:26.865Z,2.90
2023-05-11T15:25:35.714Z,3.00
2023-05-11T15:27:44.401Z,3.10
2023-05-11T15:29:53.828Z,2.80
2023-05-11T15:32:04.439Z,3.13
2023-05-11T15:34:13.184Z,2.73
2023-05-11T15:36:21.891Z,3.07
2023-05-11T15:38:31.389Z,2.80
2023-05-11T15:40:40.136Z,3.10
2023-05-11T15:42:49.263Z,3.00
2023-05-11T15:44:57.810Z,2.97
2023-05-11T15:47:09.000Z,2.90
2023-05-11T15:49:18.045Z,2.77
2023-05-11T15:51:26.622Z,3.20
2023-05-11T15:53:35.134Z,2.83
2023-05-11T15:55:46.368Z,3.03
2023-05-11T15:57:55.784Z,3.13
2023-05-11T16:00:05.069Z,3.00
2023-05-11T16:02:15.844Z,2.73
2023-05-11T16:04:24.608Z,3.17
2023-05-11T16:06:33.481Z,2.97
2023-05-11T16:08:43.252Z,3.00
2023-05-11T16:10:52.684Z,2.73
2023-05-11T16:13:01.423Z,2.97
2023-05-11T16:15:10.565Z,2.90
2023-05-11T16:17:20.860Z,2.70
2023-05-11T16:19:32.521Z,3.13
2023-05-11T16:21:41.204Z,3.07
2023-05-11T16:23:50.032Z,2.83
2023-05-11T16:25:58.884Z,3.13
2023-05-11T16:28:07.668Z,3.13
2023-05-11T16:30:24.268Z,2.80
2023-05-11T16:32:35.835Z,2.80
2023-05-11T16:34:44.419Z,2.60
2023-05-11T16:36:53.205Z,2.50
2023-05-11T16:39:02.189Z,2.93
2023-05-11T16:41:11.555Z,2.90
2023-05-11T16:43:20.322Z,2.73
2023-05-11T16:45:28.879Z,3.20
2023-05-11T16:47:38.857Z,2.90
2023-05-11T16:49:47.902Z,2.70
2023-05-11T16:51:56.476Z,2.73
2023-05-11T16:54:05.160Z,2.70
2023-05-11T16:56:15.183Z,3.63
2023-05-11T16:58:24.408Z,2.90
2023-05-11T17:00:34.294Z,3.07
2023-05-11T17:02:44.872Z,2.80
2023-05-11T17:04:53.736Z,2.70
2023-05-11T17:07:03.033Z,3.13
2023-05-11T17:09:12.085Z,3.00
2023-05-11T17:11:20.815Z,3.00
2023-05-11T17:13:29.418Z,3.10
2023-05-11T17:15:38.295Z,3.23
2023-05-11T17:17:48.723Z,3.03
2023-05-11T17:19:57.865Z,3.30
2023-05-11T17:22:07.427Z,2.87
2023-05-11T17:24:16.141Z,2.80
2023-05-11T17:26:27.454Z,3.00
2023-05-11T17:28:42.120Z,2.73
2023-05-11T17:30:52.635Z,2.90
2023-05-11T17:33:03.413Z,2.90
2023-05-11T17:35:12.692Z,2.87
2023-05-11T17:37:31.103Z,2.70
2023-05-11T17:39:41.847Z,2.87
2023-05-11T17:41:51.208Z,2.97
2023-05-11T17:44:00.195Z,3.00
2023-05-11T17:46:09.433Z,2.97
2023-05-11T17:48:19.617Z,2.73
2023-05-11T17:50:28.405Z,2.73
2023-05-11T17:52:38.048Z,2.87
2023-05-11T17:54:46.660Z,2.97
2023-05-11T17:56:55.541Z,2.80
2023-05-11T17:59:04.620Z,3.07
2023-05-11T18:01:14.279Z,2.87
2023-05-11T18:03:24.282Z,3.10
2023-05-11T18:05:44.752Z,2.90
2023-05-11T18:07:57.302Z,3.17
2023-05-11T18:10:06.570Z,2.87
2023-05-11T18:12:15.397Z,2.90
2023-05-11T18:14:24.491Z,2.63
2023-05-11T18:16:34.201Z,2.93
2023-05-11T18:18:45.192Z,2.80
2023-05-11T18:20:54.465Z,2.90
2023-05-11T18:23:04.009Z,2.70
2023-05-11T18:25:13.860Z,2.93
2023-05-11T18:27:22.399Z,3.40
2023-05-11T18:29:31.913Z,2.80
2023-05-11T18:31:40.478Z,2.43
2023-05-11T18:33:50.766Z,2.93
2023-05-11T18:35:59.800Z,2.83
2023-05-11T18:38:08.577Z,2.70
2023-05-11T18:40:17.849Z,2.90
2023-05-11T18:42:27.190Z,3.10
2023-05-11T18:44:36.166Z,2.73
2023-05-11T18:46:44.911Z,2.93
2023-05-11T18:48:55.528Z,2.83
2023-05-11T18:51:04.219Z,2.73
2023-05-11T18:53:13.042Z,3.27
2023-05-11T18:55:21.859Z,2.90
2023-05-11T18:57:32.590Z,2.90
2023-05-11T18:59:41.364Z,2.70
2023-05-11T19:01:50.284Z,2.90
2023-05-11T19:04:01.465Z,2.60
2023-05-11T19:06:10.375Z,2.70
2023-05-11T19:08:19.451Z,3.20
2023-05-11T19:10:28.233Z,2.83
2023-05-11T19:12:37.091Z,2.63
2023-05-11T19:14:47.339Z,2.70
2023-05-11T19:16:56.541Z,2.80
2023-05-11T19:19:07.324Z,2.67
2023-05-11T19:21:17.011Z,2.70
2023-05-11T19:23:25.531Z,2.80
2023-05-11T19:25:34.257Z,2.90
2023-05-11T19:27:43.497Z,2.90
2023-05-11T19:29:52.137Z,2.70
2023-05-11T19:32:01.271Z,2.90
2023-05-11T19:34:11.692Z,2.60
2023-05-11T19:36:20.702Z,2.80
2023-05-11T19:38:29.350Z,2.80
2023-05-11T19:40:45.875Z,2.93
2023-05-11T19:42:55.304Z,2.87
2023-05-11T19:45:04.574Z,2.80
2023-05-11T19:47:13.232Z,2.47
2023-05-11T19:49:24.387Z,2.50
2023-05-11T19:51:33.471Z,3.03
2023-05-11T19:53:43.195Z,2.30
2023-05-11T19:55:52.263Z,2.60
2023-05-11T19:58:01.644Z,2.77
2023-05-11T20:00:11.986Z,2.60
2023-05-11T20:02:20.995Z,2.67
2023-05-11T20:04:32.031Z,3.00
2023-05-11T20:06:41.089Z,2.43
2023-05-11T20:08:51.621Z,2.70
2023-05-11T20:11:01.421Z,2.33
2023-05-11T20:13:10.079Z,2.60
2023-05-11T20:15:19.582Z,2.67
2023-05-11T20:17:28.451Z,2.70
2023-05-11T20:19:38.423Z,2.77
2023-05-11T20:21:47.316Z,2.60
2023-05-11T20:23:56.395Z,2.50
2023-05-11T20:26:05.229Z,2.60
2023-05-11T20:28:14.457Z,2.90
2023-05-11T20:30:23.106Z,3.20
2023-05-11T20:32:31.608Z,2.50
2023-05-11T20:34:42.567Z,3.03
2023-05-11T20:36:53.904Z,2.70
2023-05-11T20:39:03.093Z,2.60
2023-05-11T20:41:12.003Z,2.70
2023-05-11T20:43:21.158Z,3.17
2023-05-11T20:45:30.107Z,2.70
2023-05-11T20:47:38.818Z,2.90
2023-05-11T20:49:50.143Z,2.80
2023-05-11T20:51:59.383Z,2.70
2023-05-11T20:54:08.314Z,2.53
2023-05-11T20:56:17.434Z,3.27
2023-05-11T20:58:26.150Z,2.77
2023-05-11T21:00:35.282Z,2.90
2023-05-11T21:02:44.059Z,2.90
2023-05-11T21:04:54.584Z,2.67
2023-05-11T21:07:03.202Z,2.67
2023-05-11T21:09:12.087Z,3.20
2023-05-11T21:11:22.096Z,2.83
2023-05-11T21:13:31.750Z,3.00
2023-05-11T21:15:41.303Z,2.97
2023-05-11T21:17:50.427Z,2.53
2023-05-11T21:20:00.923Z,2.87
2023-05-11T21:22:09.476Z,2.77
2023-05-11T21:24:18.061Z,2.93
2023-05-11T21:26:27.428Z,3.20
2023-05-11T21:28:36.914Z,3.33
2023-05-11T21:30:46.128Z,3.50
2023-05-11T21:32:55.053Z,2.93
2023-05-11T21:35:05.466Z,2.93
2023-05-11T21:37:15.090Z,4.20
2023-05-11T21:39:25.082Z,3.30
2023-05-11T21:41:34.000Z,3.10
2023-05-11T21:43:43.139Z,2.70
2023-05-11T21:45:53.191Z,3.20
2023-05-11T21:48:03.691Z,3.13
2023-05-11T21:50:15.335Z,3.07
2023-05-11T21:52:24.326Z,2.97
2023-05-11T21:54:32.905Z,3.10
2023-05-11T21:56:42.375Z,2.73
2023-05-11T21:58:51.406Z,3.37
2023-05-11T22:01:00.133Z,3.10
2023-05-11T22:03:09.320Z,3.00
2023-05-11T22:05:19.995Z,3.27
2023-05-11T22:07:28.684Z,3.67
2023-05-11T22:09:37.759Z,2.90
2023-05-11T22:11:46.392Z,2.93
2023-05-11T22:13:55.347Z,3.10
2023-05-11T22:16:04.296Z,3.30
2023-05-11T22:18:12.958Z,3.27
2023-05-11T22:20:23.330Z,3.30
2023-05-11T22:22:32.204Z,3.43
2023-05-11T22:24:41.374Z,3.47
2023-05-11T22:26:50.263Z,3.47
2023-05-11T22:28:58.942Z,3.40
2023-05-11T22:31:08.205Z,3.47
2023-05-11T22:33:17.060Z,3.20
2023-05-11T22:35:28.169Z,3.20
2023-05-11T22:37:37.157Z,3.60
2023-05-11T22:39:46.278Z,3.20
2023-05-11T22:41:55.092Z,3.37
2023-05-11T22:44:04.278Z,3.50
2023-05-11T22:46:13.271Z,3.13
2023-05-11T22:48:22.329Z,3.40
2023-05-11T22:50:33.001Z,3.70
2023-05-11T22:52:41.800Z,4.07
2023-05-11T22:54:55.268Z,3.10
2023-05-11T22:57:04.976Z,3.50
2023-05-11T22:59:14.007Z,3.93
2023-05-11T23:01:22.879Z,3.67
2023-05-11T23:03:31.607Z,3.80
2023-05-11T23:05:42.005Z,3.30
2023-05-11T23:07:51.383Z,3.63
2023-05-11T23:10:00.301Z,3.90
2023-05-11T23:12:09.146Z,3.60
2023-05-11T23:14:18.450Z,3.30
2023-05-11T23:16:27.115Z,3.63
2023-05-11T23:18:36.194Z,3.60
2023-05-11T23:20:47.271Z,3.43
2023-05-11T23:22:55.990Z,3.37
2023-05-11T23:25:04.713Z,3.50
2023-05-11T23:27:13.283Z,3.63
2023-05-11T23:29:22.414Z,3.60
2023-05-11T23:31:32.983Z,3.60
2023-05-11T23:33:42.318Z,3.17
2023-05-11T23:35:52.743Z,3.23
2023-05-11T23:38:01.605Z,3.40
2023-05-11T23:40:11.230Z,3.40
2023-05-11T23:42:20.231Z,3.17
2023-05-11T23:44:29.668Z,3.03
2023-05-11T23:46:38.649Z,3.20
2023-05-11T23:48:47.229Z,3.60
2023-05-11T23:50:57.766Z,3.40
2023-05-11T23:53:06.621Z,3.60
2023-05-11T23:55:15.392Z,3.50
2023-05-11T23:57:24.830Z,3.10
2023-05-11T23:59:33.387Z,3.50
